Time;durP1;ratioP1;P1;durP2;ratioP2;P2;SDS_P1;SDS_P2;PMS_P1;PMS_P2;Temp;Humidity;BMP_temperature;BMP_pressure;BME280_temperature;BME280_humidity;BME280_pressure;Samples;Min_cycle;Max_cycle;Signal;HPM_P1;HPM_P2
2023/10/16 00:01:38;;;;;;;6.97;1.25;;;;;;;7.54;98.85;102161.53;10506913;28;20090;-61
2023/10/16 00:07:00;;;;;;;4.78;1.13;;;;;;;7.56;99.51;102154.66;10495881;28;20518;-61
2023/10/16 00:12:22;;;;;;;5.65;1.10;;;;;;;7.65;99.32;102160.72;10484814;28;20519;-61
2023/10/16 00:17:44;;;;;;;6.63;0.90;;;;;;;7.71;99.39;102160.72;10501166;28;20088;-61
2023/10/16 00:23:10;;;;;;;7.10;1.20;;;;;;;7.76;100.00;102163.31;10503104;28;20074;-61
2023/10/16 00:28:33;;;;;;;6.32;1.30;;;;;;;7.82;100.00;102153.03;10510760;28;20048;-61
2023/10/16 00:33:55;;;;;;;7.18;1.42;;;;;;;7.84;100.00;102147.00;10499846;28;20075;-61
2023/10/16 00:39:20;;;;;;;7.78;1.08;;;;;;;7.91;100.00;102155.63;10496412;28;20045;-61
2023/10/16 00:44:42;;;;;;;7.90;1.55;;;;;;;7.93;100.00;102147.03;10505959;28;20054;-61
2023/10/16 00:50:05;;;;;;;6.88;1.25;;;;;;;7.93;100.00;102146.16;10506557;28;20063;-61
2023/10/16 00:55:28;;;;;;;7.72;1.55;;;;;;;7.91;100.00;102147.91;10495803;28;20544;-61
2023/10/16 01:00:50;;;;;;;6.60;1.17;;;;;;;7.95;100.00;102145.31;10504662;28;20035;-61
2023/10/16 01:06:58;;;;;;;5.82;1.05;;;;;;;7.92;100.00;102141.88;10494457;28;20245;-62
2023/10/16 01:11:54;;;;;;;6.20;1.13;;;;;;;7.92;100.00;102154.75;10506064;28;20130;-61
2023/10/16 01:17:29;;;;;;;4.40;1.00;;;;;;;7.93;100.00;102161.63;10502507;28;20146;-61
2023/10/16 01:22:52;;;;;;;6.43;1.20;;;;;;;7.94;100.00;102153.06;10495612;28;20140;-61
2023/10/16 01:28:15;;;;;;;7.18;1.00;;;;;;;7.96;100.00;102153.91;10499638;28;20456;-61
2023/10/16 01:33:40;;;;;;;9.43;1.27;;;;;;;8.00;100.00;102158.22;10509299;28;20134;-61
2023/10/16 01:39:07;;;;;;;6.93;1.27;;;;;;;8.01;100.00;102152.19;10503861;28;20051;-62
2023/10/16 01:44:29;;;;;;;5.47;1.20;;;;;;;8.04;100.00;102139.31;10513519;28;20044;-62
2023/10/16 01:49:51;;;;;;;5.80;1.27;;;;;;;8.02;99.99;102139.31;10508888;28;20473;-61
2023/10/16 01:55:16;;;;;;;3.53;1.20;;;;;;;8.04;100.00;102139.31;10513339;28;20044;-61
2023/10/16 02:00:41;;;;;;;6.20;1.23;;;;;;;8.04;99.96;102131.56;10502867;28;20044;-61
2023/10/16 02:06:03;;;;;;;4.50;1.10;;;;;;;8.05;100.00;102135.88;10508675;28;20059;-61
2023/10/16 02:11:25;;;;;;;6.78;1.45;;;;;;;8.06;100.00;102141.03;10507465;28;20523;-61
2023/10/16 02:16:47;;;;;;;6.13;1.10;;;;;;;8.09;100.00;102153.09;10490576;28;20055;-61
2023/10/16 02:22:11;;;;;;;4.30;0.93;;;;;;;8.07;100.00;102147.06;10491880;28;20043;-62
2023/10/16 02:27:33;;;;;;;7.35;1.00;;;;;;;8.10;100.00;102159.94;10505782;28;20051;-61
2023/10/16 02:33:10;;;;;;;6.38;1.17;;;;;;;8.10;100.00;102154.78;10498989;28;20064;-61
2023/10/16 02:38:32;;;;;;;4.93;1.17;;;;;;;8.08;100.00;102151.34;10506049;28;20044;-62
2023/10/16 02:43:54;;;;;;;8.30;1.25;;;;;;;8.13;100.00;102147.06;10504350;28;20050;-62
2023/10/16 02:49:16;;;;;;;9.00;1.08;;;;;;;8.13;100.00;102145.34;10505348;28;20055;-61
2023/10/16 02:54:37;;;;;;;2.40;0.90;;;;;;;8.17;100.00;102141.03;10500395;28;20127;-62
2023/10/16 02:59:59;;;;;;;7.90;0.90;;;;;;;8.14;100.00;102135.91;10505907;28;20037;-61
2023/10/16 03:05:24;;;;;;;5.10;0.95;;;;;;;8.11;100.00;102128.19;10502371;28;20198;-62
2023/10/16 03:10:46;;;;;;;5.90;0.93;;;;;;;8.10;100.00;102123.84;10499825;28;20036;-61
2023/10/16 03:16:15;;;;;;;6.50;1.20;;;;;;;8.10;100.00;102131.59;10512082;28;20043;-61
2023/10/16 03:21:39;;;;;;;3.95;1.02;;;;;;;8.14;100.00;102141.94;10509407;28;20078;-62
2023/10/16 03:27:08;;;;;;;6.35;1.02;;;;;;;8.16;100.00;102134.19;10510285;28;20041;-62
2023/10/16 03:32:33;;;;;;;6.95;1.30;;;;;;;8.20;100.00;102135.03;10520294;27;20059;-62
2023/10/16 03:37:57;;;;;;;9.35;1.20;;;;;;;8.24;100.00;102135.06;10497155;28;20137;-62
2023/10/16 03:43:19;;;;;;;2.75;1.00;;;;;;;8.25;100.00;102135.94;10506021;28;20047;-61
2023/10/16 03:48:41;;;;;;;2.80;1.17;;;;;;;8.29;100.00;102141.09;10506431;28;20584;-62
2023/10/16 03:54:03;;;;;;;5.80;1.10;;;;;;;8.34;100.00;102147.13;10506301;28;20052;-61
2023/10/16 03:59:28;;;;;;;5.75;1.08;;;;;;;8.31;100.00;102139.41;10501133;28;20060;-62
2023/10/16 04:04:53;;;;;;;4.07;0.97;;;;;;;8.35;100.00;102148.00;10499053;28;20048;-62
2023/10/16 04:10:27;;;;;;;6.43;1.13;;;;;;;8.35;100.00;102153.97;10507839;28;20164;-61
2023/10/16 04:21:40;;;;;;;6.47;1.25;;;;;;;8.35;100.00;102164.28;10517759;28;20533;-61
2023/10/16 04:49:36;;;;;;;3.17;0.90;;;;;;;8.27;100.00;102145.41;10464113;28;20056;-62
2023/10/16 04:55:02;;;;;;;7.35;1.23;;;;;;;8.29;100.00;102133.38;10493025;28;20511;-61
2023/10/16 05:17:22;;;;;;;6.82;1.40;;;;;;;8.33;100.00;102113.59;10495756;28;20044;-62
2023/10/16 06:19:19;;;;;;;4.93;1.55;;;;;;;8.36;100.00;102129.06;10509281;28;20045;-61
2023/10/16 06:24:44;;;;;;;2.22;1.60;;;;;;;8.37;100.00;102144.53;10500245;28;20044;-62
2023/10/16 06:30:07;;;;;;;8.18;1.67;;;;;;;8.41;100.00;102125.63;10502123;28;20048;-62
2023/10/16 06:35:29;;;;;;;6.57;1.70;;;;;;;8.49;100.00;102126.50;10507688;28;20047;-62
2023/10/16 06:40:55;;;;;;;7.53;2.03;;;;;;;8.57;100.00;102140.22;10506047;28;20182;-61
2023/10/16 06:46:24;;;;;;;4.25;1.67;;;;;;;8.60;100.00;102137.66;10492215;28;20143;-62
2023/10/16 06:51:47;;;;;;;3.60;1.70;;;;;;;8.62;100.00;102141.09;10504491;28;20052;-62
2023/10/16 06:57:11;;;;;;;3.90;1.65;;;;;;;8.63;100.00;102147.97;10499749;28;20519;-62
2023/10/16 07:02:35;;;;;;;3.53;1.50;;;;;;;8.60;100.00;102153.13;10486110;28;20044;-62
2023/10/16 07:07:57;;;;;;;5.00;1.50;;;;;;;8.56;100.00;102166.91;10505981;28;20067;-62
2023/10/16 07:13:27;;;;;;;6.63;1.90;;;;;;;8.60;100.00;102167.75;10504531;28;20047;-62
2023/10/16 07:18:54;;;;;;;3.50;1.65;;;;;;;8.65;100.00;102166.88;10492041;28;20447;-62
2023/10/16 07:24:15;;;;;;;5.88;1.77;;;;;;;8.70;100.00;102164.28;10509457;28;20416;-62
2023/10/16 07:29:41;;;;;;;6.13;1.90;;;;;;;8.73;100.00;102165.19;10500042;28;20051;-62
2023/10/16 07:35:03;;;;;;;5.53;2.20;;;;;;;8.75;100.00;102152.25;10498624;28;20045;-62
2023/10/16 07:40:25;;;;;;;6.18;1.90;;;;;;;8.84;100.00;102153.13;10501736;28;20511;-62
2023/10/16 07:45:47;;;;;;;5.43;1.90;;;;;;;8.92;100.00;102156.53;10500899;28;20063;-62
2023/10/16 07:51:10;;;;;;;6.35;2.08;;;;;;;9.00;100.00;102153.94;10497465;28;20049;-62
2023/10/16 07:56:33;;;;;;;6.13;2.00;;;;;;;9.10;100.00;102171.97;10501385;28;20500;-62
2023/10/16 08:01:57;;;;;;;7.00;1.80;;;;;;;9.20;100.00;102187.44;10496458;28;20174;-62
2023/10/16 08:07:34;;;;;;;2.55;1.60;;;;;;;9.30;100.00;102183.97;10498050;28;20427;-62
2023/10/16 08:12:56;;;;;;;6.38;1.67;;;;;;;9.46;100.00;102180.47;10505293;28;20063;-62
2023/10/16 08:18:18;;;;;;;5.85;2.03;;;;;;;9.65;100.00;102188.13;10501489;28;20496;-63
2023/10/16 08:23:45;;;;;;;5.80;1.75;;;;;;;9.72;100.00;102183.81;10521482;27;20143;-62
2023/10/16 08:29:20;;;;;;;5.10;1.58;;;;;;;9.82;100.00;102190.66;10524611;27;20039;-63
2023/10/16 08:34:42;;;;;;;4.75;1.40;;;;;;;9.81;100.00;102188.94;10531820;27;20095;-62
2023/10/16 08:40:18;;;;;;;3.67;1.20;;;;;;;9.84;100.00;102186.34;10530086;27;20082;-63
2023/10/16 08:45:48;;;;;;;4.22;1.30;;;;;;;9.89;100.00;102182.84;10523415;27;20052;-63
2023/10/16 08:51:11;;;;;;;5.88;1.70;;;;;;;9.91;100.00;102193.19;10526773;28;20797;-63
2023/10/16 08:56:34;;;;;;;9.88;2.00;;;;;;;9.89;100.00;102190.63;10526837;27;20058;-63
2023/10/16 09:01:58;;;;;;;3.85;1.70;;;;;;;9.97;100.00;102195.75;10521708;27;20129;-63
2023/10/16 09:07:20;;;;;;;10.90;2.13;;;;;;;10.07;100.00;102207.78;10514489;27;20087;-63
2023/10/16 09:12:52;;;;;;;6.30;1.38;;;;;;;10.09;100.00;102200.88;10540078;27;20063;-63
2023/10/16 09:18:15;;;;;;;9.00;1.63;;;;;;;10.20;100.00;102203.41;10537402;27;20066;-63
2023/10/16 09:23:36;;;;;;;4.93;1.67;;;;;;;10.31;99.97;102206.78;10528954;27;20606;-63
2023/10/16 09:29:20;;;;;;;7.70;1.65;;;;;;;10.44;100.00;102204.09;10528866;28;20483;-63
2023/10/16 09:34:41;;;;;;;5.65;1.33;;;;;;;10.53;98.10;102208.34;10518452;28;20047;-63
2023/10/16 09:52:04;;;;;;;6.20;1.10;;;;;;;10.67;95.36;102202.19;10387095;28;20140;-62
2023/10/16 09:57:30;;;;;;;5.85;1.02;;;;;;;10.74;96.09;102203.00;10390586;28;20052;-62
2023/10/16 10:03:13;;;;;;;2.90;0.90;;;;;;;10.77;95.00;102202.94;10388699;28;20046;-62
2023/10/16 10:09:03;;;;;;;8.07;0.90;;;;;;;10.78;94.51;102204.69;10391236;28;20144;-62
2023/10/16 10:14:39;;;;;;;3.97;0.90;;;;;;;10.81;94.58;102200.34;10437651;27;20067;-63
2023/10/16 10:20:08;;;;;;;6.38;1.17;;;;;;;10.87;94.32;102200.28;10542007;27;20092;-62
2023/10/16 10:25:37;;;;;;;8.05;0.80;;;;;;;10.99;94.54;102200.16;10540319;27;20658;-62
2023/10/16 10:31:05;;;;;;;4.05;0.80;;;;;;;11.11;91.98;102200.03;10534352;27;20070;-62
2023/10/16 10:36:27;;;;;;;3.17;0.77;;;;;;;11.24;90.28;102205.97;10545335;27;20058;-62
2023/10/16 10:41:58;;;;;;;1.98;0.63;;;;;;;11.35;90.27;102200.66;10536870;27;20056;-62
2023/10/16 10:47:33;;;;;;;4.30;0.93;;;;;;;11.48;89.08;102190.13;10548204;27;20565;-63
2023/10/16 10:52:55;;;;;;;4.03;0.90;;;;;;;11.57;89.54;102194.34;10537310;27;20043;-62
2023/10/16 10:58:20;;;;;;;5.75;1.10;;;;;;;11.55;90.81;102196.97;10538908;27;20365;-63
2023/10/16 11:03:45;;;;;;;3.43;0.83;;;;;;;11.63;85.51;102194.28;10546303;27;20130;-62
2023/10/16 11:09:13;;;;;;;5.07;1.05;;;;;;;11.75;85.07;102188.97;10538776;27;20387;-63
2023/10/16 11:14:36;;;;;;;5.07;1.00;;;;;;;11.87;86.75;102188.81;10530660;27;20101;-62
2023/10/16 11:19:59;;;;;;;10.45;0.82;;;;;;;11.88;87.28;102193.13;10548052;27;20127;-63
2023/10/16 11:25:22;;;;;;;4.55;1.00;;;;;;;11.86;85.31;102194.88;10531620;27;20383;-62
2023/10/16 11:30:45;;;;;;;2.58;0.70;;;;;;;11.91;87.87;102198.25;10532868;27;20048;-62
2023/10/16 11:36:07;;;;;;;3.15;0.75;;;;;;;11.69;88.75;102204.59;10544372;27;20048;-63
2023/10/16 11:41:30;;;;;;;2.20;0.40;;;;;;;11.45;93.95;102203.13;10537227;27;20051;-62
2023/10/16 11:46:52;;;;;;;5.35;0.60;;;;;;;11.29;92.29;102187.75;10548531;27;20130;-62
2023/10/16 11:52:22;;;;;;;1.80;0.50;;;;;;;11.11;92.53;102194.84;10537556;27;20044;-62
2023/10/16 11:57:44;;;;;;;1.90;0.50;;;;;;;11.07;94.96;102181.97;10531969;27;20052;-62
2023/10/16 12:03:07;;;;;;;3.78;0.50;;;;;;;11.11;95.58;102192.25;10535091;27;20146;-62
2023/10/16 12:08:30;;;;;;;3.90;0.60;;;;;;;11.19;95.33;102199.13;10540947;27;20040;-62
2023/10/16 12:13:51;;;;;;;4.53;0.90;;;;;;;11.22;94.98;102199.06;10532805;27;20058;-62
2023/10/16 12:19:15;;;;;;;3.08;0.57;;;;;;;11.25;95.98;102186.94;10537859;27;20706;-62
2023/10/16 12:24:38;;;;;;;2.97;0.50;;;;;;;11.26;93.81;102191.28;10533542;27;20059;-62
2023/10/16 12:30:01;;;;;;;3.35;0.52;;;;;;;11.35;93.67;102185.13;10533634;27;20057;-62
2023/10/16 12:35:22;;;;;;;3.53;0.85;;;;;;;11.39;95.50;102192.00;10538235;27;20051;-62
2023/10/16 12:40:44;;;;;;;3.63;0.50;;;;;;;11.44;92.56;102193.66;10536175;27;20059;-62
2023/10/16 12:46:07;;;;;;;3.53;0.70;;;;;;;11.50;93.36;102188.38;10533477;27;20046;-62
2023/10/16 12:51:29;;;;;;;2.65;0.70;;;;;;;11.56;93.17;102198.69;10523012;27;20167;-62
2023/10/16 12:56:52;;;;;;;3.55;0.70;;;;;;;11.54;95.52;102190.06;10524330;27;20062;-62
2023/10/16 13:02:14;;;;;;;5.90;1.90;;;;;;;11.45;95.34;102178.94;10534112;27;20681;-62
2023/10/16 13:07:35;;;;;;;2.08;0.70;;;;;;;11.49;96.83;102180.63;10531130;27;20044;-62
2023/10/16 13:13:05;;;;;;;4.03;0.73;;;;;;;11.47;96.60;102172.00;10543931;27;20042;-62
2023/10/16 13:18:27;;;;;;;2.78;0.60;;;;;;;11.51;96.79;102176.28;10530089;27;20048;-62
2023/10/16 13:23:51;;;;;;;2.28;0.45;;;;;;;11.52;94.43;102181.44;10538454;27;20051;-62
2023/10/16 13:29:13;;;;;;;3.95;0.80;;;;;;;11.56;94.91;102182.25;10527839;27;20047;-63
2023/10/16 13:34:36;;;;;;;2.33;0.60;;;;;;;11.58;94.26;102181.38;10529363;28;20043;-63
2023/10/16 13:39:58;;;;;;;3.15;0.60;;;;;;;11.56;92.44;102182.25;10517658;28;20047;-62
2023/10/16 13:45:22;;;;;;;3.75;0.70;;;;;;;11.62;91.10;102187.38;10531239;28;20055;-62
2023/10/16 13:50:47;;;;;;;5.47;0.82;;;;;;;11.67;91.16;102188.19;10517006;28;20040;-62
2023/10/16 13:56:16;;;;;;;5.20;0.73;;;;;;;11.64;92.67;102178.72;10522182;28;20044;-62
2023/10/16 14:01:39;;;;;;;4.93;0.80;;;;;;;11.64;93.42;102185.63;10526692;28;20744;-61
2023/10/16 14:07:07;;;;;;;1.95;0.60;;;;;;;11.66;91.53;102178.72;10521951;28;20109;-62
2023/10/16 14:12:34;;;;;;;2.17;0.70;;;;;;;11.71;91.79;102179.50;10531331;28;20080;-62
2023/10/16 14:17:57;;;;;;;5.10;0.80;;;;;;;11.74;91.80;102175.13;10523460;28;20439;-62
2023/10/16 14:23:24;;;;;;;6.25;1.02;;;;;;;11.72;92.32;102174.31;10518329;28;20036;-62
2023/10/16 14:28:50;;;;;;;2.28;0.77;;;;;;;11.66;92.40;102189.09;10510950;28;20040;-62
2023/10/16 14:34:18;;;;;;;3.22;0.80;;;;;;;11.50;90.75;102184.94;10543019;28;20048;-61
2023/10/16 14:39:40;;;;;;;2.28;0.68;;;;;;;11.44;93.19;102167.72;10538632;28;20047;-62
2023/10/16 14:45:06;;;;;;;4.38;0.60;;;;;;;11.34;89.56;102171.28;10521592;28;20144;-62
2023/10/16 14:50:32;;;;;;;4.10;0.80;;;;;;;11.29;90.90;102161.84;10531805;27;20077;-62
2023/10/16 14:55:54;;;;;;;3.17;0.73;;;;;;;11.35;91.55;102167.84;10541479;27;20161;-61
2023/10/16 15:01:16;;;;;;;3.22;0.68;;;;;;;11.38;93.09;102164.34;10533165;27;20471;-62
2023/10/16 15:06:38;;;;;;;3.63;0.65;;;;;;;11.37;91.28;102160.03;10536738;27;20048;-62
2023/10/16 15:12:00;;;;;;;3.72;0.88;;;;;;;11.39;89.51;102158.28;10539291;27;20162;-62
2023/10/16 15:17:21;;;;;;;5.20;0.73;;;;;;;11.37;90.75;102165.22;10534468;27;20043;-62
2023/10/16 15:22:44;;;;;;;4.43;1.00;;;;;;;11.35;92.69;102166.97;10542345;27;20040;-62
2023/10/16 15:28:06;;;;;;;4.72;0.73;;;;;;;11.34;92.32;102166.09;10533238;28;20066;-62
2023/10/16 15:33:29;;;;;;;6.88;0.98;;;;;;;11.36;92.70;102168.69;10549550;27;20134;-62
2023/10/16 15:38:50;;;;;;;4.88;0.70;;;;;;;11.34;92.14;102165.25;10541758;27;20051;-62
2023/10/16 15:44:12;;;;;;;8.77;1.05;;;;;;;11.32;93.19;102167.03;10525526;27;20068;-62
2023/10/16 15:49:36;;;;;;;5.60;1.13;;;;;;;11.32;91.70;102170.44;10529708;27;20087;-62
2023/10/16 15:54:58;;;;;;;2.35;0.90;;;;;;;11.32;91.52;102167.03;10534197;27;20130;-62
2023/10/16 16:00:30;;;;;;;4.80;1.23;;;;;;;11.27;90.70;102179.16;10528553;27;20052;-61
2023/10/16 16:05:52;;;;;;;3.47;1.10;;;;;;;11.14;90.74;102168.94;10541174;27;20055;-62
2023/10/16 16:11:13;;;;;;;10.45;1.25;;;;;;;11.03;91.20;102177.69;10537431;27;20052;-62
2023/10/16 16:16:35;;;;;;;4.63;1.30;;;;;;;11.02;93.81;102174.22;10539961;27;20396;-61
2023/10/16 16:21:57;;;;;;;4.65;1.30;;;;;;;10.97;94.67;102177.72;10535470;27;20441;-62
2023/10/16 16:27:19;;;;;;;5.95;2.00;;;;;;;10.90;95.46;102184.72;10536591;27;20052;-62
2023/10/16 16:32:40;;;;;;;6.75;2.28;;;;;;;10.80;96.79;102188.28;10528656;27;20058;-62
2023/10/16 16:38:07;;;;;;;6.53;3.33;;;;;;;10.73;97.63;102191.78;10535590;27;20068;-62
2023/10/16 16:43:29;;;;;;;9.20;4.70;;;;;;;10.66;97.32;102184.94;10532842;27;20035;-62
2023/10/16 16:48:51;;;;;;;8.55;3.95;;;;;;;10.61;98.98;102194.47;10536424;27;20047;-61
2023/10/16 16:54:12;;;;;;;8.63;4.13;;;;;;;10.59;98.98;102203.09;10540302;27;20638;-61
2023/10/16 16:59:35;;;;;;;8.90;3.97;;;;;;;10.56;99.89;102198.84;10537366;27;20049;-61
2023/10/16 17:04:58;;;;;;;9.13;3.28;;;;;;;10.54;100.00;102200.56;10536421;27;20051;-61
2023/10/16 17:10:25;;;;;;;8.20;3.70;;;;;;;10.55;100.00;102215.22;10524910;27;20101;-61
2023/10/16 17:15:47;;;;;;;10.30;3.90;;;;;;;10.55;100.00;102211.81;10536716;27;20043;-61
2023/10/16 17:21:09;;;;;;;10.55;4.20;;;;;;;10.54;100.00;102216.09;10532604;27;20505;-62
2023/10/16 17:26:32;;;;;;;9.05;3.92;;;;;;;10.55;100.00;102222.97;10529744;27;20048;-61
2023/10/16 17:31:55;;;;;;;10.05;4.00;;;;;;;10.57;100.00;102225.56;10541456;27;20044;-62
2023/10/16 17:37:17;;;;;;;7.70;3.70;;;;;;;10.56;100.00;102222.13;10536751;28;20373;-61
2023/10/16 17:42:43;;;;;;;6.93;3.20;;;;;;;10.54;100.00;102229.03;10547068;28;20040;-62
2023/10/16 17:48:07;;;;;;;4.95;3.20;;;;;;;10.53;100.00;102229.91;10523135;28;20054;-62
2023/10/16 17:53:29;;;;;;;5.82;3.40;;;;;;;10.51;100.00;102226.47;10537315;28;20560;-61
2023/10/16 17:58:52;;;;;;;7.20;3.13;;;;;;;10.47;100.00;102218.75;10540742;28;20142;-63
2023/10/16 18:04:14;;;;;;;7.45;3.63;;;;;;;10.40;100.00;102223.09;10529432;28;20040;-62
2023/10/16 18:09:36;;;;;;;9.85;3.55;;;;;;;10.33;100.00;102225.75;10525670;28;20445;-62
2023/10/16 18:14:57;;;;;;;8.18;4.07;;;;;;;10.28;100.00;102228.34;10527951;28;20050;-61
2023/10/16 18:20:19;;;;;;;9.93;4.30;;;;;;;10.22;100.00;102228.38;10529044;28;20041;-61
2023/10/16 18:25:46;;;;;;;10.75;4.70;;;;;;;10.17;100.00;102229.28;10543613;27;20043;-64
2023/10/16 18:31:10;;;;;;;11.63;4.85;;;;;;;10.13;100.00;102231.03;10528656;27;21215;-61
2023/10/16 18:36:32;;;;;;;6.93;4.80;;;;;;;10.08;100.00;102230.16;10540724;27;20047;-61
2023/10/16 18:41:55;;;;;;;9.23;6.13;;;;;;;9.99;100.00;102219.88;10544051;27;20036;-61
2023/10/16 18:47:17;;;;;;;13.60;7.30;;;;;;;9.94;100.00;102225.06;10538391;27;20052;-62
2023/10/16 18:52:40;;;;;;;11.60;7.25;;;;;;;9.92;100.00;102229.41;10543271;27;20640;-62
2023/10/16 18:58:02;;;;;;;17.70;9.43;;;;;;;9.91;100.00;102226.78;10536660;27;20062;-62
2023/10/16 19:03:24;;;;;;;15.10;8.57;;;;;;;9.90;100.00;102227.69;10533113;27;20048;-62
2023/10/16 19:08:46;;;;;;;16.88;10.45;;;;;;;9.88;100.00;102217.34;10531142;27;20063;-62
2023/10/16 19:14:08;;;;;;;16.05;9.43;;;;;;;9.90;100.00;102240.59;10530188;27;20471;-62
2023/10/16 19:19:30;;;;;;;18.83;10.18;;;;;;;9.92;100.00;102246.63;10526330;27;20051;-62
2023/10/16 19:24:52;;;;;;;17.55;10.77;;;;;;;9.92;100.00;102241.47;10521370;27;20447;-62
2023/10/16 19:30:16;;;;;;;17.90;10.18;;;;;;;9.94;100.00;102244.91;10549120;27;20051;-61
2023/10/16 19:35:39;;;;;;;17.20;9.90;;;;;;;9.98;100.00;102236.28;10536601;27;20054;-62
2023/10/16 19:41:02;;;;;;;20.20;10.52;;;;;;;9.99;100.00;102243.16;10536068;27;20816;-61
2023/10/16 19:46:24;;;;;;;16.80;10.55;;;;;;;10.02;100.00;102240.53;10528014;27;20052;-61
2023/10/16 19:51:46;;;;;;;19.25;12.02;;;;;;;10.05;100.00;102243.13;10534797;27;20040;-61
2023/10/16 19:57:10;;;;;;;19.25;12.07;;;;;;;10.05;100.00;102243.13;10540512;27;20130;-61
2023/10/16 20:02:31;;;;;;;21.27;12.68;;;;;;;10.07;100.00;102255.16;10533299;27;20532;-62
2023/10/16 20:07:57;;;;;;;19.88;12.50;;;;;;;10.08;100.00;102266.38;10533956;27;20063;-61
2023/10/16 20:13:21;;;;;;;22.58;13.88;;;;;;;10.09;100.00;102262.94;10538945;27;20059;-61
2023/10/16 20:18:43;;;;;;;26.73;14.38;;;;;;;10.12;100.00;102273.28;10525302;28;20048;-61
2023/10/16 20:24:07;;;;;;;25.65;15.35;;;;;;;10.16;100.00;102279.31;10535217;27;20048;-62
2023/10/16 20:29:28;;;;;;;30.67;16.95;;;;;;;10.17;100.00;102281.88;10535704;27;20052;-62
2023/10/16 20:34:50;;;;;;;32.30;16.77;;;;;;;10.20;100.00;102281.84;10538046;27;20130;-62
2023/10/16 20:40:20;;;;;;;47.63;22.98;;;;;;;10.17;100.00;102271.53;10533995;27;20471;-61
2023/10/16 20:45:45;;;;;;;44.28;21.52;;;;;;;10.17;100.00;102276.72;10530192;27;20040;-62
2023/10/16 20:51:07;;;;;;;40.03;22.25;;;;;;;10.17;100.00;102271.53;10546325;27;20052;-62
2023/10/16 20:56:28;;;;;;;37.75;20.63;;;;;;;10.17;100.00;102265.50;10516000;27;20048;-61
2023/10/16 21:01:50;;;;;;;25.90;14.60;;;;;;;10.15;100.00;102262.91;10532858;27;20040;-61
2023/10/16 21:07:12;;;;;;;20.88;11.30;;;;;;;10.16;100.00;102275.00;10538114;27;20047;-61
2023/10/16 21:12:35;;;;;;;21.17;12.07;;;;;;;10.17;100.00;102268.06;10512404;27;20059;-61
2023/10/16 21:17:57;;;;;;;19.80;12.27;;;;;;;10.16;100.00;102268.97;10543470;27;20520;-62
2023/10/16 21:23:21;;;;;;;18.98;10.88;;;;;;;10.13;100.00;102262.06;10534362;28;20040;-61
2023/10/16 21:28:42;;;;;;;21.52;11.75;;;;;;;10.13;100.00;102264.66;10533038;27;20052;-61
2023/10/16 21:34:04;;;;;;;16.73;9.88;;;;;;;10.14;100.00;102266.38;10523873;27;20510;-61
2023/10/16 21:39:28;;;;;;;20.15;12.30;;;;;;;10.16;100.00;102280.16;10536714;28;20047;-61
2023/10/16 21:44:52;;;;;;;24.45;12.00;;;;;;;10.17;100.00;102270.66;10538660;28;20048;-61
2023/10/16 21:50:14;;;;;;;18.85;11.68;;;;;;;10.20;100.00;102274.09;10509674;28;22656;-61
2023/10/16 21:55:35;;;;;;;17.50;10.82;;;;;;;10.23;100.00;102275.81;10527138;28;20051;-61
2023/10/16 22:01:06;;;;;;;16.85;9.32;;;;;;;10.21;100.00;102275.81;10536829;27;20036;-61
2023/10/16 22:06:30;;;;;;;20.20;10.55;;;;;;;10.20;100.00;102271.50;10532942;27;20060;-61
2023/10/16 22:11:52;;;;;;;16.33;9.30;;;;;;;10.18;100.00;102264.63;10536034;27;20042;-61
2023/10/16 22:17:14;;;;;;;19.20;10.13;;;;;;;10.17;100.00;102266.34;10533900;27;20051;-63
2023/10/16 22:22:35;;;;;;;17.50;10.60;;;;;;;10.14;100.00;102267.22;10535541;27;20294;-61
2023/10/16 22:27:57;;;;;;;16.27;10.32;;;;;;;10.10;100.00;102270.72;10534903;27;20186;-61
2023/10/16 22:33:19;;;;;;;16.92;10.60;;;;;;;10.08;100.00;102272.41;10533759;27;20043;-61
2023/10/16 22:38:42;;;;;;;16.23;10.10;;;;;;;10.07;100.00;102269.84;10521488;27;20048;-61
2023/10/16 22:44:07;;;;;;;18.33;10.07;;;;;;;10.00;100.00;102260.38;10534051;27;20043;-62
2023/10/16 22:49:29;;;;;;;16.83;10.80;;;;;;;10.03;100.00;102268.13;10540438;27;20043;-61
2023/10/16 22:54:51;;;;;;;22.38;11.88;;;;;;;9.98;100.00;102267.31;10536861;27;20435;-61
2023/10/16 23:00:13;;;;;;;19.65;11.43;;;;;;;9.98;100.00;102264.72;10534265;27;20055;-63
2023/10/16 23:05:35;;;;;;;19.38;12.15;;;;;;;9.98;100.00;102259.53;10553518;27;20109;-61
2023/10/16 23:11:09;;;;;;;20.95;12.43;;;;;;;9.96;100.00;102250.94;10534795;28;20850;-61
2023/10/16 23:16:30;;;;;;;22.50;13.23;;;;;;;9.97;100.00;102247.47;10529065;27;20050;-61
2023/10/16 23:21:58;;;;;;;21.67;13.15;;;;;;;9.98;100.00;102247.44;10534362;27;20691;-61
2023/10/16 23:27:20;;;;;;;20.35;13.93;;;;;;;9.98;100.00;102244.88;10542469;27;20047;-61
2023/10/16 23:32:42;;;;;;;26.58;13.57;;;;;;;9.99;100.00;102254.34;10529999;27;20530;-62
2023/10/16 23:38:04;;;;;;;21.67;13.45;;;;;;;9.97;100.00;102250.91;10536484;27;20428;-61
2023/10/16 23:43:28;;;;;;;21.20;14.23;;;;;;;9.99;100.00;102256.06;10531949;27;20040;-61
2023/10/16 23:48:57;;;;;;;23.85;14.27;;;;;;;9.96;100.00;102256.09;10537039;27;20043;-61
2023/10/16 23:54:34;;;;;;;21.85;14.20;;;;;;;9.95;100.00;102259.53;10538660;27;20523;-61
